sensor_id;sensor_type;location;lat;lon;timestamp;P1;durP1;ratioP1;P2;durP2;ratioP2
10452;SDS011;5274;51.992;8.518;2023-06-14T00:00:14;51.33;;;48.15;;
10452;SDS011;5274;51.992;8.518;2023-06-14T00:02:41;47.85;;;45.05;;
10452;SDS011;5274;51.992;8.518;2023-06-14T00:05:07;48.42;;;45.33;;
10452;SDS011;5274;51.992;8.518;2023-06-14T00:07:36;50.38;;;47.38;;
10452;SDS011;5274;51.992;8.518;2023-06-14T00:10:11;53.42;;;50.13;;
10452;SDS011;5274;51.992;8.518;2023-06-14T00:12:37;48.65;;;45.42;;
10452;SDS011;5274;51.992;8.518;2023-06-14T00:15:04;48.67;;;45.72;;
10452;SDS011;5274;51.992;8.518;2023-06-14T00:17:30;44.55;;;41.95;;
10452;SDS011;5274;51.992;8.518;2023-06-14T00:19:59;52.60;;;49.38;;
10452;SDS011;5274;51.992;8.518;2023-06-14T00:22:28;48.33;;;45.47;;
10452;SDS011;5274;51.992;8.518;2023-06-14T00:24:55;46.05;;;43.25;;
10452;SDS011;5274;51.992;8.518;2023-06-14T00:27:21;48.13;;;44.58;;
10452;SDS011;5274;51.992;8.518;2023-06-14T00:29:47;50.03;;;47.03;;
10452;SDS011;5274;51.992;8.518;2023-06-14T00:32:13;45.42;;;42.45;;
10452;SDS011;5274;51.992;8.518;2023-06-14T00:34:39;49.53;;;46.08;;
10452;SDS011;5274;51.992;8.518;2023-06-14T00:37:05;51.03;;;47.88;;
10452;SDS011;5274;51.992;8.518;2023-06-14T00:39:31;50.97;;;47.88;;
10452;SDS011;5274;51.992;8.518;2023-06-14T00:41:57;43.70;;;40.90;;
10452;SDS011;5274;51.992;8.518;2023-06-14T00:44:24;49.28;;;46.08;;
10452;SDS011;5274;51.992;8.518;2023-06-14T00:46:50;41.60;;;39.17;;
10452;SDS011;5274;51.992;8.518;2023-06-14T00:49:16;44.78;;;42.17;;
10452;SDS011;5274;51.992;8.518;2023-06-14T00:51:42;46.33;;;43.65;;
10452;SDS011;5274;51.992;8.518;2023-06-14T00:54:09;47.38;;;44.58;;
10452;SDS011;5274;51.992;8.518;2023-06-14T00:56:36;51.55;;;48.55;;
10452;SDS011;5274;51.992;8.518;2023-06-14T00:59:02;51.55;;;48.45;;
10452;SDS011;5274;51.992;8.518;2023-06-14T01:01:28;47.10;;;44.00;;
10452;SDS011;5274;51.992;8.518;2023-06-14T01:03:57;47.90;;;44.92;;
10452;SDS011;5274;51.992;8.518;2023-06-14T01:06:26;45.47;;;42.72;;
10452;SDS011;5274;51.992;8.518;2023-06-14T01:11:26;53.15;;;49.90;;
10452;SDS011;5274;51.992;8.518;2023-06-14T01:13:54;49.25;;;46.15;;
10452;SDS011;5274;51.992;8.518;2023-06-14T01:16:21;50.42;;;47.38;;
10452;SDS011;5274;51.992;8.518;2023-06-14T01:18:48;47.05;;;44.08;;
10452;SDS011;5274;51.992;8.518;2023-06-14T01:21:23;52.88;;;49.65;;
10452;SDS011;5274;51.992;8.518;2023-06-14T01:23:50;50.45;;;47.45;;
10452;SDS011;5274;51.992;8.518;2023-06-14T01:26:20;45.78;;;42.88;;
10452;SDS011;5274;51.992;8.518;2023-06-14T01:28:46;44.17;;;41.08;;
10452;SDS011;5274;51.992;8.518;2023-06-14T01:31:15;57.72;;;53.50;;
10452;SDS011;5274;51.992;8.518;2023-06-14T01:33:41;56.63;;;52.72;;
10452;SDS011;5274;51.992;8.518;2023-06-14T01:36:07;55.63;;;51.63;;
10452;SDS011;5274;51.992;8.518;2023-06-14T01:38:34;55.70;;;51.83;;
10452;SDS011;5274;51.992;8.518;2023-06-14T01:41:01;55.70;;;51.60;;
10452;SDS011;5274;51.992;8.518;2023-06-14T01:43:29;55.83;;;51.60;;
10452;SDS011;5274;51.992;8.518;2023-06-14T01:45:55;56.50;;;52.70;;
10452;SDS011;5274;51.992;8.518;2023-06-14T01:48:22;55.35;;;51.50;;
10452;SDS011;5274;51.992;8.518;2023-06-14T01:50:49;55.90;;;51.92;;
10452;SDS011;5274;51.992;8.518;2023-06-14T01:53:15;55.53;;;51.70;;
10452;SDS011;5274;51.992;8.518;2023-06-14T01:55:41;55.28;;;51.38;;
10452;SDS011;5274;51.992;8.518;2023-06-14T01:58:08;56.42;;;52.08;;
10452;SDS011;5274;51.992;8.518;2023-06-14T02:00:34;56.17;;;52.15;;
10452;SDS011;5274;51.992;8.518;2023-06-14T02:03:00;56.97;;;52.97;;
10452;SDS011;5274;51.992;8.518;2023-06-14T02:05:28;58.35;;;53.97;;
10452;SDS011;5274;51.992;8.518;2023-06-14T02:07:55;58.55;;;54.42;;
10452;SDS011;5274;51.992;8.518;2023-06-14T02:10:21;56.83;;;52.92;;
10452;SDS011;5274;51.992;8.518;2023-06-14T02:12:46;56.75;;;52.75;;
10452;SDS011;5274;51.992;8.518;2023-06-14T02:15:12;56.53;;;52.53;;
10452;SDS011;5274;51.992;8.518;2023-06-14T02:17:42;56.17;;;52.08;;
10452;SDS011;5274;51.992;8.518;2023-06-14T02:20:08;56.22;;;52.13;;
10452;SDS011;5274;51.992;8.518;2023-06-14T02:22:34;55.88;;;51.92;;
10452;SDS011;5274;51.992;8.518;2023-06-14T02:25:00;56.35;;;52.35;;
10452;SDS011;5274;51.992;8.518;2023-06-14T02:27:26;57.03;;;53.03;;
10452;SDS011;5274;51.992;8.518;2023-06-14T02:29:52;56.92;;;52.92;;
10452;SDS011;5274;51.992;8.518;2023-06-14T02:32:18;57.80;;;53.78;;
10452;SDS011;5274;51.992;8.518;2023-06-14T02:34:44;56.70;;;52.80;;
10452;SDS011;5274;51.992;8.518;2023-06-14T02:37:14;58.70;;;54.35;;
10452;SDS011;5274;51.992;8.518;2023-06-14T02:39:40;46.55;;;43.65;;
10452;SDS011;5274;51.992;8.518;2023-06-14T02:42:06;40.55;;;37.97;;
10452;SDS011;5274;51.992;8.518;2023-06-14T02:44:32;41.60;;;39.10;;
10452;SDS011;5274;51.992;8.518;2023-06-14T02:46:58;38.38;;;35.97;;
10452;SDS011;5274;51.992;8.518;2023-06-14T02:49:25;39.47;;;37.13;;
10452;SDS011;5274;51.992;8.518;2023-06-14T02:51:51;41.47;;;39.13;;
10452;SDS011;5274;51.992;8.518;2023-06-14T02:54:17;41.83;;;39.47;;
10452;SDS011;5274;51.992;8.518;2023-06-14T02:56:43;41.60;;;39.22;;
10452;SDS011;5274;51.992;8.518;2023-06-14T02:59:09;42.50;;;40.00;;
10452;SDS011;5274;51.992;8.518;2023-06-14T03:01:35;39.63;;;37.40;;
10452;SDS011;5274;51.992;8.518;2023-06-14T03:04:06;36.58;;;34.33;;
10452;SDS011;5274;51.992;8.518;2023-06-14T03:06:32;39.53;;;37.13;;
10452;SDS011;5274;51.992;8.518;2023-06-14T03:08:58;44.60;;;41.95;;
10452;SDS011;5274;51.992;8.518;2023-06-14T03:11:26;46.55;;;43.40;;
10452;SDS011;5274;51.992;8.518;2023-06-14T03:13:52;45.13;;;42.30;;
10452;SDS011;5274;51.992;8.518;2023-06-14T03:16:18;45.55;;;42.80;;
10452;SDS011;5274;51.992;8.518;2023-06-14T03:18:44;43.17;;;40.40;;
10452;SDS011;5274;51.992;8.518;2023-06-14T03:21:10;42.70;;;40.00;;
10452;SDS011;5274;51.992;8.518;2023-06-14T03:23:36;42.97;;;40.08;;
10452;SDS011;5274;51.992;8.518;2023-06-14T03:26:02;41.83;;;39.33;;
10452;SDS011;5274;51.992;8.518;2023-06-14T03:28:28;45.35;;;42.63;;
10452;SDS011;5274;51.992;8.518;2023-06-14T03:30:54;44.30;;;41.50;;
10452;SDS011;5274;51.992;8.518;2023-06-14T03:33:20;47.33;;;44.22;;
10452;SDS011;5274;51.992;8.518;2023-06-14T03:35:46;48.50;;;45.25;;
10452;SDS011;5274;51.992;8.518;2023-06-14T03:38:12;48.03;;;44.92;;
10452;SDS011;5274;51.992;8.518;2023-06-14T03:40:38;47.00;;;44.17;;
10452;SDS011;5274;51.992;8.518;2023-06-14T03:43:03;40.78;;;38.38;;
10452;SDS011;5274;51.992;8.518;2023-06-14T03:45:30;40.90;;;38.25;;
10452;SDS011;5274;51.992;8.518;2023-06-14T03:47:55;41.50;;;38.47;;
10452;SDS011;5274;51.992;8.518;2023-06-14T03:50:22;42.15;;;39.28;;
10452;SDS011;5274;51.992;8.518;2023-06-14T03:52:48;53.65;;;49.80;;
10452;SDS011;5274;51.992;8.518;2023-06-14T03:55:15;56.10;;;52.15;;
10452;SDS011;5274;51.992;8.518;2023-06-14T03:57:41;56.10;;;51.95;;
10452;SDS011;5274;51.992;8.518;2023-06-14T04:00:10;56.20;;;52.30;;
10452;SDS011;5274;51.992;8.518;2023-06-14T04:02:37;57.10;;;53.20;;
10452;SDS011;5274;51.992;8.518;2023-06-14T04:05:03;57.58;;;53.10;;
10452;SDS011;5274;51.992;8.518;2023-06-14T04:07:33;57.55;;;53.35;;
10452;SDS011;5274;51.992;8.518;2023-06-14T04:10:04;57.30;;;53.30;;
10452;SDS011;5274;51.992;8.518;2023-06-14T04:12:30;58.88;;;54.65;;
10452;SDS011;5274;51.992;8.518;2023-06-14T04:14:56;57.17;;;52.92;;
10452;SDS011;5274;51.992;8.518;2023-06-14T04:17:22;56.78;;;52.88;;
10452;SDS011;5274;51.992;8.518;2023-06-14T04:19:48;55.53;;;51.72;;
10452;SDS011;5274;51.992;8.518;2023-06-14T04:22:14;53.28;;;49.67;;
10452;SDS011;5274;51.992;8.518;2023-06-14T04:24:40;53.70;;;50.00;;
10452;SDS011;5274;51.992;8.518;2023-06-14T04:27:07;56.80;;;52.40;;
10452;SDS011;5274;51.992;8.518;2023-06-14T04:29:33;55.97;;;52.03;;
10452;SDS011;5274;51.992;8.518;2023-06-14T04:31:59;56.53;;;52.53;;
10452;SDS011;5274;51.992;8.518;2023-06-14T04:34:26;56.30;;;52.30;;
10452;SDS011;5274;51.992;8.518;2023-06-14T04:36:54;54.72;;;50.75;;
10452;SDS011;5274;51.992;8.518;2023-06-14T04:39:20;55.35;;;51.53;;
10452;SDS011;5274;51.992;8.518;2023-06-14T04:41:46;55.90;;;52.08;;
10452;SDS011;5274;51.992;8.518;2023-06-14T04:44:12;57.20;;;53.17;;
10452;SDS011;5274;51.992;8.518;2023-06-14T04:46:41;57.42;;;53.25;;
10452;SDS011;5274;51.992;8.518;2023-06-14T04:49:17;57.25;;;53.13;;
10452;SDS011;5274;51.992;8.518;2023-06-14T04:51:43;56.28;;;52.28;;
10452;SDS011;5274;51.992;8.518;2023-06-14T04:54:10;56.83;;;52.63;;
10452;SDS011;5274;51.992;8.518;2023-06-14T04:56:38;56.05;;;52.33;;
10452;SDS011;5274;51.992;8.518;2023-06-14T04:59:04;57.90;;;54.00;;
10452;SDS011;5274;51.992;8.518;2023-06-14T05:01:30;55.20;;;51.40;;
10452;SDS011;5274;51.992;8.518;2023-06-14T05:03:57;56.83;;;53.05;;
10452;SDS011;5274;51.992;8.518;2023-06-14T05:06:23;56.47;;;52.28;;
10452;SDS011;5274;51.992;8.518;2023-06-14T05:08:49;52.40;;;49.00;;
10452;SDS011;5274;51.992;8.518;2023-06-14T05:11:15;56.03;;;52.13;;
10452;SDS011;5274;51.992;8.518;2023-06-14T05:13:44;56.80;;;52.80;;
10452;SDS011;5274;51.992;8.518;2023-06-14T05:16:11;57.92;;;53.88;;
10452;SDS011;5274;51.992;8.518;2023-06-14T05:18:37;57.70;;;53.33;;
10452;SDS011;5274;51.992;8.518;2023-06-14T05:21:05;56.67;;;52.63;;
10452;SDS011;5274;51.992;8.518;2023-06-14T05:23:31;57.20;;;53.30;;
10452;SDS011;5274;51.992;8.518;2023-06-14T05:25:57;56.90;;;53.10;;
10452;SDS011;5274;51.992;8.518;2023-06-14T05:28:23;56.70;;;52.60;;
10452;SDS011;5274;51.992;8.518;2023-06-14T05:30:49;55.47;;;51.72;;
10452;SDS011;5274;51.992;8.518;2023-06-14T05:33:15;56.05;;;52.25;;
10452;SDS011;5274;51.992;8.518;2023-06-14T05:35:41;56.80;;;52.85;;
10452;SDS011;5274;51.992;8.518;2023-06-14T05:38:07;54.88;;;51.00;;
10452;SDS011;5274;51.992;8.518;2023-06-14T05:40:33;52.20;;;48.17;;
10452;SDS011;5274;51.992;8.518;2023-06-14T05:42:59;53.83;;;49.97;;
10452;SDS011;5274;51.992;8.518;2023-06-14T05:45:25;56.08;;;52.35;;
10452;SDS011;5274;51.992;8.518;2023-06-14T05:47:51;56.85;;;52.80;;
10452;SDS011;5274;51.992;8.518;2023-06-14T05:50:19;57.72;;;53.63;;
10452;SDS011;5274;51.992;8.518;2023-06-14T05:52:45;56.83;;;52.90;;
10452;SDS011;5274;51.992;8.518;2023-06-14T05:55:11;56.28;;;52.47;;
10452;SDS011;5274;51.992;8.518;2023-06-14T05:57:37;57.03;;;52.90;;
10452;SDS011;5274;51.992;8.518;2023-06-14T06:00:03;55.67;;;51.78;;
10452;SDS011;5274;51.992;8.518;2023-06-14T06:02:36;53.40;;;50.00;;
10452;SDS011;5274;51.992;8.518;2023-06-14T06:05:02;55.83;;;52.13;;
10452;SDS011;5274;51.992;8.518;2023-06-14T06:07:28;54.97;;;51.20;;
10452;SDS011;5274;51.992;8.518;2023-06-14T06:09:54;55.42;;;51.78;;
10452;SDS011;5274;51.992;8.518;2023-06-14T06:12:20;55.17;;;51.35;;
10452;SDS011;5274;51.992;8.518;2023-06-14T06:14:46;40.65;;;37.97;;
10452;SDS011;5274;51.992;8.518;2023-06-14T06:17:12;38.00;;;35.38;;
10452;SDS011;5274;51.992;8.518;2023-06-14T06:19:38;43.55;;;41.05;;
10452;SDS011;5274;51.992;8.518;2023-06-14T06:22:04;41.95;;;39.40;;
10452;SDS011;5274;51.992;8.518;2023-06-14T06:24:31;42.13;;;39.58;;
10452;SDS011;5274;51.992;8.518;2023-06-14T06:26:57;40.83;;;38.53;;
10452;SDS011;5274;51.992;8.518;2023-06-14T06:29:23;37.85;;;35.75;;
10452;SDS011;5274;51.992;8.518;2023-06-14T06:31:49;31.27;;;29.58;;
10452;SDS011;5274;51.992;8.518;2023-06-14T06:34:15;35.08;;;33.13;;
10452;SDS011;5274;51.992;8.518;2023-06-14T06:36:41;37.60;;;35.55;;
10452;SDS011;5274;51.992;8.518;2023-06-14T06:39:07;42.80;;;39.95;;
10452;SDS011;5274;51.992;8.518;2023-06-14T06:41:35;41.88;;;39.47;;
10452;SDS011;5274;51.992;8.518;2023-06-14T06:44:02;40.33;;;37.83;;
10452;SDS011;5274;51.992;8.518;2023-06-14T06:46:28;40.05;;;37.72;;
10452;SDS011;5274;51.992;8.518;2023-06-14T06:48:54;41.92;;;39.53;;
10452;SDS011;5274;51.992;8.518;2023-06-14T06:51:20;40.78;;;38.47;;
10452;SDS011;5274;51.992;8.518;2023-06-14T06:53:51;40.75;;;38.42;;
10452;SDS011;5274;51.992;8.518;2023-06-14T06:56:17;39.63;;;37.40;;
10452;SDS011;5274;51.992;8.518;2023-06-14T06:58:44;39.22;;;36.92;;
10452;SDS011;5274;51.992;8.518;2023-06-14T07:01:10;42.85;;;39.92;;
10452;SDS011;5274;51.992;8.518;2023-06-14T07:03:36;42.80;;;40.10;;
10452;SDS011;5274;51.992;8.518;2023-06-14T07:06:02;42.28;;;39.67;;
10452;SDS011;5274;51.992;8.518;2023-06-14T07:08:29;40.83;;;38.55;;
10452;SDS011;5274;51.992;8.518;2023-06-14T07:10:55;41.70;;;39.33;;
10452;SDS011;5274;51.992;8.518;2023-06-14T07:13:21;41.13;;;38.72;;
10452;SDS011;5274;51.992;8.518;2023-06-14T07:15:47;42.60;;;40.17;;
10452;SDS011;5274;51.992;8.518;2023-06-14T07:18:13;41.28;;;38.90;;
10452;SDS011;5274;51.992;8.518;2023-06-14T07:20:39;42.70;;;40.13;;
10452;SDS011;5274;51.992;8.518;2023-06-14T07:23:05;43.90;;;41.40;;
10452;SDS011;5274;51.992;8.518;2023-06-14T07:25:31;37.70;;;35.50;;
10452;SDS011;5274;51.992;8.518;2023-06-14T07:27:57;38.58;;;36.20;;
10452;SDS011;5274;51.992;8.518;2023-06-14T07:30:23;36.08;;;33.75;;
10452;SDS011;5274;51.992;8.518;2023-06-14T07:32:51;38.40;;;36.20;;
10452;SDS011;5274;51.992;8.518;2023-06-14T07:35:17;39.90;;;37.60;;
10452;SDS011;5274;51.992;8.518;2023-06-14T07:37:43;44.60;;;41.90;;
10452;SDS011;5274;51.992;8.518;2023-06-14T07:40:10;38.53;;;36.13;;
10452;SDS011;5274;51.992;8.518;2023-06-14T07:42:36;38.58;;;36.08;;
10452;SDS011;5274;51.992;8.518;2023-06-14T07:45:03;40.53;;;38.13;;
10452;SDS011;5274;51.992;8.518;2023-06-14T07:47:29;39.00;;;36.85;;
10452;SDS011;5274;51.992;8.518;2023-06-14T07:49:55;42.35;;;40.05;;
10452;SDS011;5274;51.992;8.518;2023-06-14T07:52:21;40.92;;;38.72;;
10452;SDS011;5274;51.992;8.518;2023-06-14T07:54:47;41.33;;;39.03;;
10452;SDS011;5274;51.992;8.518;2023-06-14T07:57:13;43.55;;;41.05;;
10452;SDS011;5274;51.992;8.518;2023-06-14T07:59:39;46.65;;;43.65;;
10452;SDS011;5274;51.992;8.518;2023-06-14T08:02:05;41.88;;;39.60;;
10452;SDS011;5274;51.992;8.518;2023-06-14T08:04:31;49.25;;;46.17;;
10452;SDS011;5274;51.992;8.518;2023-06-14T08:06:57;45.45;;;42.92;;
10452;SDS011;5274;51.992;8.518;2023-06-14T08:09:23;46.38;;;43.78;;
10452;SDS011;5274;51.992;8.518;2023-06-14T08:11:50;43.13;;;40.15;;
10452;SDS011;5274;51.992;8.518;2023-06-14T08:14:16;42.92;;;40.20;;
10452;SDS011;5274;51.992;8.518;2023-06-14T08:16:41;39.58;;;37.45;;
10452;SDS011;5274;51.992;8.518;2023-06-14T08:19:07;44.88;;;42.28;;
10452;SDS011;5274;51.992;8.518;2023-06-14T08:21:33;42.70;;;40.20;;
10452;SDS011;5274;51.992;8.518;2023-06-14T08:24:01;42.47;;;39.67;;
10452;SDS011;5274;51.992;8.518;2023-06-14T08:26:28;40.97;;;38.75;;
10452;SDS011;5274;51.992;8.518;2023-06-14T08:28:55;42.95;;;40.58;;
10452;SDS011;5274;51.992;8.518;2023-06-14T08:31:21;37.13;;;35.03;;
10452;SDS011;5274;51.992;8.518;2023-06-14T08:33:47;42.70;;;40.33;;
10452;SDS011;5274;51.992;8.518;2023-06-14T08:36:13;45.42;;;42.63;;
10452;SDS011;5274;51.992;8.518;2023-06-14T08:38:39;50.25;;;47.35;;
10452;SDS011;5274;51.992;8.518;2023-06-14T08:41:06;48.78;;;46.00;;
10452;SDS011;5274;51.992;8.518;2023-06-14T08:43:32;44.25;;;41.83;;
10452;SDS011;5274;51.992;8.518;2023-06-14T08:46:00;36.38;;;34.42;;
10452;SDS011;5274;51.992;8.518;2023-06-14T08:48:26;43.85;;;41.47;;
10452;SDS011;5274;51.992;8.518;2023-06-14T08:50:53;43.55;;;40.92;;
10452;SDS011;5274;51.992;8.518;2023-06-14T08:53:26;40.75;;;38.35;;
10452;SDS011;5274;51.992;8.518;2023-06-14T08:55:52;40.42;;;38.00;;
10452;SDS011;5274;51.992;8.518;2023-06-14T08:58:18;42.20;;;39.90;;
10452;SDS011;5274;51.992;8.518;2023-06-14T09:00:44;44.22;;;41.63;;
10452;SDS011;5274;51.992;8.518;2023-06-14T09:03:11;42.88;;;40.47;;
10452;SDS011;5274;51.992;8.518;2023-06-14T09:05:38;41.08;;;38.60;;
10452;SDS011;5274;51.992;8.518;2023-06-14T09:08:04;38.78;;;36.50;;
10452;SDS011;5274;51.992;8.518;2023-06-14T09:10:31;41.00;;;38.58;;
10452;SDS011;5274;51.992;8.518;2023-06-14T09:13:02;43.47;;;40.78;;
10452;SDS011;5274;51.992;8.518;2023-06-14T09:15:29;40.72;;;38.45;;
10452;SDS011;5274;51.992;8.518;2023-06-14T09:17:56;45.58;;;43.00;;
10452;SDS011;5274;51.992;8.518;2023-06-14T09:20:23;42.78;;;40.33;;
10452;SDS011;5274;51.992;8.518;2023-06-14T09:22:50;42.40;;;39.83;;
10452;SDS011;5274;51.992;8.518;2023-06-14T09:25:16;42.72;;;40.33;;
10452;SDS011;5274;51.992;8.518;2023-06-14T09:27:43;41.55;;;39.17;;
10452;SDS011;5274;51.992;8.518;2023-06-14T09:30:09;40.03;;;37.60;;
10452;SDS011;5274;51.992;8.518;2023-06-14T09:32:39;43.92;;;41.05;;
10452;SDS011;5274;51.992;8.518;2023-06-14T09:35:06;41.78;;;39.38;;
10452;SDS011;5274;51.992;8.518;2023-06-14T09:37:32;43.28;;;40.78;;
10452;SDS011;5274;51.992;8.518;2023-06-14T09:39:59;46.90;;;44.15;;
10452;SDS011;5274;51.992;8.518;2023-06-14T09:42:25;44.17;;;41.55;;
10452;SDS011;5274;51.992;8.518;2023-06-14T09:44:53;46.15;;;43.45;;
10452;SDS011;5274;51.992;8.518;2023-06-14T09:47:19;45.80;;;42.65;;
10452;SDS011;5274;51.992;8.518;2023-06-14T09:49:46;40.85;;;38.30;;
10452;SDS011;5274;51.992;8.518;2023-06-14T09:52:16;46.05;;;43.35;;
10452;SDS011;5274;51.992;8.518;2023-06-14T09:54:44;44.25;;;41.55;;
10452;SDS011;5274;51.992;8.518;2023-06-14T09:57:15;45.55;;;42.75;;
10452;SDS011;5274;51.992;8.518;2023-06-14T09:59:42;43.55;;;41.08;;
10452;SDS011;5274;51.992;8.518;2023-06-14T10:02:11;54.25;;;50.70;;
10452;SDS011;5274;51.992;8.518;2023-06-14T10:04:39;54.95;;;51.55;;
10452;SDS011;5274;51.992;8.518;2023-06-14T10:07:05;57.70;;;53.90;;
10452;SDS011;5274;51.992;8.518;2023-06-14T10:09:32;58.92;;;55.22;;
10452;SDS011;5274;51.992;8.518;2023-06-14T10:12:00;56.95;;;53.35;;
10452;SDS011;5274;51.992;8.518;2023-06-14T10:14:26;56.88;;;53.13;;
10452;SDS011;5274;51.992;8.518;2023-06-14T10:16:56;55.70;;;51.85;;
10452;SDS011;5274;51.992;8.518;2023-06-14T10:19:27;55.03;;;51.70;;
10452;SDS011;5274;51.992;8.518;2023-06-14T10:22:01;55.30;;;51.58;;
10452;SDS011;5274;51.992;8.518;2023-06-14T10:24:32;52.28;;;49.08;;
10452;SDS011;5274;51.992;8.518;2023-06-14T10:26:58;53.35;;;49.85;;
10452;SDS011;5274;51.992;8.518;2023-06-14T10:29:26;50.38;;;47.28;;
10452;SDS011;5274;51.992;8.518;2023-06-14T10:31:57;50.42;;;47.35;;
10452;SDS011;5274;51.992;8.518;2023-06-14T10:37:00;51.08;;;47.97;;
10452;SDS011;5274;51.992;8.518;2023-06-14T10:39:27;50.05;;;46.53;;
10452;SDS011;5274;51.992;8.518;2023-06-14T10:41:53;49.80;;;46.70;;
10452;SDS011;5274;51.992;8.518;2023-06-14T10:46:46;51.78;;;48.47;;
10452;SDS011;5274;51.992;8.518;2023-06-14T10:49:12;53.33;;;49.92;;
10452;SDS011;5274;51.992;8.518;2023-06-14T10:51:38;53.17;;;49.83;;
10452;SDS011;5274;51.992;8.518;2023-06-14T10:54:11;50.15;;;47.03;;
10452;SDS011;5274;51.992;8.518;2023-06-14T10:56:45;51.42;;;47.78;;
10452;SDS011;5274;51.992;8.518;2023-06-14T10:59:12;47.80;;;44.70;;
10452;SDS011;5274;51.992;8.518;2023-06-14T11:01:40;47.67;;;44.67;;
10452;SDS011;5274;51.992;8.518;2023-06-14T11:04:08;48.35;;;45.35;;
10452;SDS011;5274;51.992;8.518;2023-06-14T11:06:45;51.33;;;48.13;;
10452;SDS011;5274;51.992;8.518;2023-06-14T11:09:18;52.30;;;49.03;;
10452;SDS011;5274;51.992;8.518;2023-06-14T11:11:47;52.17;;;48.78;;
10452;SDS011;5274;51.992;8.518;2023-06-14T11:14:13;49.55;;;46.33;;
10452;SDS011;5274;51.992;8.518;2023-06-14T11:16:39;51.75;;;48.55;;
10452;SDS011;5274;51.992;8.518;2023-06-14T11:19:05;47.80;;;44.65;;
10452;SDS011;5274;51.992;8.518;2023-06-14T11:21:32;52.83;;;49.53;;
10452;SDS011;5274;51.992;8.518;2023-06-14T11:23:58;53.38;;;49.88;;
10452;SDS011;5274;51.992;8.518;2023-06-14T11:26:25;50.08;;;47.08;;
10452;SDS011;5274;51.992;8.518;2023-06-14T11:28:54;54.63;;;51.22;;
10452;SDS011;5274;51.992;8.518;2023-06-14T11:31:21;57.50;;;53.85;;
10452;SDS011;5274;51.992;8.518;2023-06-14T11:33:50;56.88;;;53.17;;
10452;SDS011;5274;51.992;8.518;2023-06-14T11:36:16;58.25;;;54.60;;
10452;SDS011;5274;51.992;8.518;2023-06-14T11:38:42;58.42;;;54.83;;
10452;SDS011;5274;51.992;8.518;2023-06-14T11:41:08;56.97;;;53.42;;
10452;SDS011;5274;51.992;8.518;2023-06-14T11:43:35;57.97;;;54.38;;
10452;SDS011;5274;51.992;8.518;2023-06-14T11:46:01;57.38;;;53.78;;
10452;SDS011;5274;51.992;8.518;2023-06-14T11:48:36;43.70;;;41.20;;
10452;SDS011;5274;51.992;8.518;2023-06-14T11:51:02;46.00;;;43.38;;
10452;SDS011;5274;51.992;8.518;2023-06-14T11:53:28;45.85;;;43.30;;
10452;SDS011;5274;51.992;8.518;2023-06-14T11:55:55;43.75;;;41.05;;
10452;SDS011;5274;51.992;8.518;2023-06-14T11:58:21;42.90;;;40.20;;
10452;SDS011;5274;51.992;8.518;2023-06-14T12:00:50;44.85;;;42.33;;
10452;SDS011;5274;51.992;8.518;2023-06-14T12:03:16;46.38;;;43.60;;
10452;SDS011;5274;51.992;8.518;2023-06-14T12:05:42;38.67;;;36.53;;
10452;SDS011;5274;51.992;8.518;2023-06-14T12:08:08;41.28;;;39.08;;
10452;SDS011;5274;51.992;8.518;2023-06-14T12:10:41;37.92;;;35.92;;
10452;SDS011;5274;51.992;8.518;2023-06-14T12:13:10;42.90;;;40.17;;
10452;SDS011;5274;51.992;8.518;2023-06-14T12:15:36;40.53;;;38.33;;
10452;SDS011;5274;51.992;8.518;2023-06-14T12:18:05;34.47;;;32.50;;
10452;SDS011;5274;51.992;8.518;2023-06-14T12:20:33;38.63;;;36.08;;
10452;SDS011;5274;51.992;8.518;2023-06-14T12:23:00;43.10;;;40.65;;
10452;SDS011;5274;51.992;8.518;2023-06-14T12:27:56;40.70;;;38.33;;
10452;SDS011;5274;51.992;8.518;2023-06-14T12:30:22;45.65;;;42.88;;
10452;SDS011;5274;51.992;8.518;2023-06-14T12:32:48;35.85;;;33.90;;
10452;SDS011;5274;51.992;8.518;2023-06-14T12:35:16;42.38;;;39.53;;
10452;SDS011;5274;51.992;8.518;2023-06-14T12:37:42;37.80;;;35.67;;
10452;SDS011;5274;51.992;8.518;2023-06-14T12:40:08;43.00;;;40.70;;
10452;SDS011;5274;51.992;8.518;2023-06-14T12:42:36;34.88;;;32.78;;
10452;SDS011;5274;51.992;8.518;2023-06-14T12:45:02;38.08;;;35.97;;
10452;SDS011;5274;51.992;8.518;2023-06-14T12:47:28;41.00;;;38.55;;
10452;SDS011;5274;51.992;8.518;2023-06-14T12:49:54;40.80;;;38.40;;
10452;SDS011;5274;51.992;8.518;2023-06-14T12:52:20;37.03;;;34.92;;
10452;SDS011;5274;51.992;8.518;2023-06-14T12:54:46;39.95;;;37.28;;
10452;SDS011;5274;51.992;8.518;2023-06-14T12:57:12;42.10;;;39.60;;
10452;SDS011;5274;51.992;8.518;2023-06-14T12:59:38;41.40;;;39.13;;
10452;SDS011;5274;51.992;8.518;2023-06-14T13:02:13;42.25;;;39.90;;
10452;SDS011;5274;51.992;8.518;2023-06-14T13:04:39;41.08;;;38.88;;
10452;SDS011;5274;51.992;8.518;2023-06-14T13:07:05;42.00;;;39.05;;
10452;SDS011;5274;51.992;8.518;2023-06-14T13:09:31;38.67;;;36.28;;
10452;SDS011;5274;51.992;8.518;2023-06-14T13:11:57;41.17;;;38.92;;
10452;SDS011;5274;51.992;8.518;2023-06-14T13:14:23;40.72;;;38.38;;
10452;SDS011;5274;51.992;8.518;2023-06-14T13:16:49;42.05;;;39.25;;
10452;SDS011;5274;51.992;8.518;2023-06-14T13:19:15;40.40;;;37.92;;
10452;SDS011;5274;51.992;8.518;2023-06-14T13:21:41;42.00;;;39.65;;
10452;SDS011;5274;51.992;8.518;2023-06-14T13:24:07;38.65;;;36.28;;
10452;SDS011;5274;51.992;8.518;2023-06-14T13:26:33;43.05;;;40.72;;
10452;SDS011;5274;51.992;8.518;2023-06-14T13:29:00;37.55;;;35.55;;
10452;SDS011;5274;51.992;8.518;2023-06-14T13:31:26;39.13;;;36.95;;
10452;SDS011;5274;51.992;8.518;2023-06-14T13:33:52;46.67;;;44.00;;
10452;SDS011;5274;51.992;8.518;2023-06-14T13:36:18;45.15;;;42.45;;
10452;SDS011;5274;51.992;8.518;2023-06-14T13:38:44;46.05;;;43.33;;
10452;SDS011;5274;51.992;8.518;2023-06-14T13:41:10;40.72;;;38.53;;
10452;SDS011;5274;51.992;8.518;2023-06-14T13:43:36;41.30;;;38.80;;
10452;SDS011;5274;51.992;8.518;2023-06-14T13:46:02;41.50;;;39.00;;
10452;SDS011;5274;51.992;8.518;2023-06-14T13:48:28;45.22;;;42.65;;
10452;SDS011;5274;51.992;8.518;2023-06-14T13:50:54;41.65;;;39.30;;
10452;SDS011;5274;51.992;8.518;2023-06-14T13:53:19;42.05;;;39.55;;
10452;SDS011;5274;51.992;8.518;2023-06-14T13:55:45;41.20;;;38.67;;
10452;SDS011;5274;51.992;8.518;2023-06-14T13:58:11;36.47;;;34.45;;
10452;SDS011;5274;51.992;8.518;2023-06-14T14:00:39;36.70;;;34.65;;
10452;SDS011;5274;51.992;8.518;2023-06-14T14:03:05;39.35;;;37.25;;
10452;SDS011;5274;51.992;8.518;2023-06-14T14:05:31;41.72;;;39.42;;
10452;SDS011;5274;51.992;8.518;2023-06-14T14:07:57;35.42;;;33.47;;
10452;SDS011;5274;51.992;8.518;2023-06-14T14:10:26;39.30;;;37.00;;
10452;SDS011;5274;51.992;8.518;2023-06-14T14:12:52;39.85;;;37.35;;
10452;SDS011;5274;51.992;8.518;2023-06-14T14:15:19;34.50;;;32.53;;
10452;SDS011;5274;51.992;8.518;2023-06-14T14:17:45;33.00;;;31.30;;
10452;SDS011;5274;51.992;8.518;2023-06-14T14:20:12;36.88;;;34.97;;
10452;SDS011;5274;51.992;8.518;2023-06-14T14:22:40;35.95;;;33.95;;
10452;SDS011;5274;51.992;8.518;2023-06-14T14:25:06;36.33;;;34.33;;
10452;SDS011;5274;51.992;8.518;2023-06-14T14:27:32;37.47;;;35.47;;
10452;SDS011;5274;51.992;8.518;2023-06-14T14:29:58;34.33;;;32.42;;
10452;SDS011;5274;51.992;8.518;2023-06-14T14:32:24;36.10;;;34.28;;
10452;SDS011;5274;51.992;8.518;2023-06-14T14:34:50;35.10;;;33.33;;
10452;SDS011;5274;51.992;8.518;2023-06-14T14:37:16;37.90;;;35.83;;
10452;SDS011;5274;51.992;8.518;2023-06-14T14:39:44;42.10;;;39.80;;